sensor_id;sensor_type;location;lat;lon;timestamp;P1;durP1;ratioP1;P2;durP2;ratioP2
65162;SDS011;51751;55.714;37.436;2023-05-07T00:02:00;8.40;;;3.38;;
65162;SDS011;51751;55.714;37.436;2023-05-07T00:04:27;3.92;;;2.90;;
65162;SDS011;51751;55.714;37.436;2023-05-07T00:06:53;8.80;;;2.70;;
65162;SDS011;51751;55.714;37.436;2023-05-07T00:09:21;5.55;;;3.00;;
65162;SDS011;51751;55.714;37.436;2023-05-07T00:11:47;4.43;;;2.65;;
65162;SDS011;51751;55.714;37.436;2023-05-07T00:14:13;113.15;;;6.25;;
65162;SDS011;51751;55.714;37.436;2023-05-07T00:16:38;7.22;;;2.97;;
65162;SDS011;51751;55.714;37.436;2023-05-07T00:19:04;6.63;;;2.78;;
65162;SDS011;51751;55.714;37.436;2023-05-07T00:21:30;6.90;;;3.17;;
65162;SDS011;51751;55.714;37.436;2023-05-07T00:23:56;4.68;;;2.90;;
65162;SDS011;51751;55.714;37.436;2023-05-07T00:26:40;7.57;;;2.78;;
65162;SDS011;51751;55.714;37.436;2023-05-07T00:29:06;7.85;;;3.03;;
65162;SDS011;51751;55.714;37.436;2023-05-07T00:31:31;4.50;;;2.90;;
65162;SDS011;51751;55.714;37.436;2023-05-07T00:33:57;10.00;;;2.70;;
65162;SDS011;51751;55.714;37.436;2023-05-07T00:36:23;4.80;;;3.03;;
65162;SDS011;51751;55.714;37.436;2023-05-07T00:38:49;4.90;;;2.83;;
65162;SDS011;51751;55.714;37.436;2023-05-07T00:41:15;4.63;;;2.50;;
65162;SDS011;51751;55.714;37.436;2023-05-07T00:43:59;5.57;;;2.83;;
65162;SDS011;51751;55.714;37.436;2023-05-07T00:46:26;10.00;;;2.80;;
65162;SDS011;51751;55.714;37.436;2023-05-07T00:48:52;6.80;;;2.92;;
65162;SDS011;51751;55.714;37.436;2023-05-07T00:51:37;7.93;;;3.83;;
65162;SDS011;51751;55.714;37.436;2023-05-07T00:54:03;6.55;;;3.03;;
65162;SDS011;51751;55.714;37.436;2023-05-07T00:56:30;6.55;;;2.80;;
65162;SDS011;51751;55.714;37.436;2023-05-07T00:58:56;6.53;;;2.40;;
65162;SDS011;51751;55.714;37.436;2023-05-07T01:01:22;4.82;;;2.97;;
65162;SDS011;51751;55.714;37.436;2023-05-07T01:03:48;4.68;;;2.95;;
65162;SDS011;51751;55.714;37.436;2023-05-07T01:06:14;6.78;;;3.10;;
65162;SDS011;51751;55.714;37.436;2023-05-07T01:09:00;5.15;;;2.60;;
65162;SDS011;51751;55.714;37.436;2023-05-07T01:11:27;7.20;;;3.08;;
65162;SDS011;51751;55.714;37.436;2023-05-07T01:13:53;3.58;;;2.67;;
65162;SDS011;51751;55.714;37.436;2023-05-07T01:16:38;4.13;;;2.60;;
65162;SDS011;51751;55.714;37.436;2023-05-07T01:19:04;6.00;;;2.72;;
65162;SDS011;51751;55.714;37.436;2023-05-07T01:21:31;4.38;;;2.92;;
65162;SDS011;51751;55.714;37.436;2023-05-07T01:24:01;5.20;;;3.20;;
65162;SDS011;51751;55.714;37.436;2023-05-07T01:26:27;4.78;;;2.53;;
65162;SDS011;51751;55.714;37.436;2023-05-07T01:28:53;4.15;;;2.55;;
65162;SDS011;51751;55.714;37.436;2023-05-07T01:31:19;4.10;;;2.30;;
65162;SDS011;51751;55.714;37.436;2023-05-07T01:33:45;6.28;;;2.85;;
65162;SDS011;51751;55.714;37.436;2023-05-07T01:36:13;5.22;;;3.00;;
65162;SDS011;51751;55.714;37.436;2023-05-07T01:38:39;5.53;;;2.88;;
65162;SDS011;51751;55.714;37.436;2023-05-07T01:41:06;3.58;;;2.58;;
65162;SDS011;51751;55.714;37.436;2023-05-07T01:43:33;5.68;;;2.70;;
65162;SDS011;51751;55.714;37.436;2023-05-07T01:45:59;9.43;;;3.10;;
65162;SDS011;51751;55.714;37.436;2023-05-07T01:48:25;4.60;;;2.60;;
65162;SDS011;51751;55.714;37.436;2023-05-07T01:50:51;8.82;;;2.90;;
65162;SDS011;51751;55.714;37.436;2023-05-07T01:53:17;5.65;;;2.65;;
65162;SDS011;51751;55.714;37.436;2023-05-07T01:55:43;23.25;;;3.35;;
65162;SDS011;51751;55.714;37.436;2023-05-07T01:58:27;8.57;;;3.00;;
65162;SDS011;51751;55.714;37.436;2023-05-07T02:00:53;4.35;;;2.53;;
65162;SDS011;51751;55.714;37.436;2023-05-07T02:03:19;5.65;;;3.10;;
65162;SDS011;51751;55.714;37.436;2023-05-07T02:05:54;4.72;;;2.60;;
65162;SDS011;51751;55.714;37.436;2023-05-07T02:08:32;10.13;;;2.92;;
65162;SDS011;51751;55.714;37.436;2023-05-07T02:10:59;12.15;;;2.63;;
65162;SDS011;51751;55.714;37.436;2023-05-07T02:13:26;8.52;;;2.83;;
65162;SDS011;51751;55.714;37.436;2023-05-07T02:15:54;5.18;;;3.08;;
65162;SDS011;51751;55.714;37.436;2023-05-07T02:18:21;4.85;;;2.78;;
65162;SDS011;51751;55.714;37.436;2023-05-07T02:20:47;5.03;;;2.80;;
65162;SDS011;51751;55.714;37.436;2023-05-07T02:23:16;6.90;;;2.60;;
65162;SDS011;51751;55.714;37.436;2023-05-07T02:25:42;5.90;;;2.28;;
65162;SDS011;51751;55.714;37.436;2023-05-07T02:28:08;6.18;;;2.53;;
65162;SDS011;51751;55.714;37.436;2023-05-07T02:30:54;6.55;;;2.78;;
65162;SDS011;51751;55.714;37.436;2023-05-07T02:33:20;6.40;;;2.70;;
65162;SDS011;51751;55.714;37.436;2023-05-07T02:35:47;5.47;;;2.80;;
65162;SDS011;51751;55.714;37.436;2023-05-07T02:38:15;5.15;;;2.88;;
65162;SDS011;51751;55.714;37.436;2023-05-07T02:40:40;4.95;;;2.70;;
65162;SDS011;51751;55.714;37.436;2023-05-07T02:43:07;5.43;;;2.97;;
65162;SDS011;51751;55.714;37.436;2023-05-07T02:45:33;3.72;;;2.55;;
65162;SDS011;51751;55.714;37.436;2023-05-07T02:48:00;10.63;;;3.20;;
65162;SDS011;51751;55.714;37.436;2023-05-07T02:50:26;9.35;;;3.05;;
65162;SDS011;51751;55.714;37.436;2023-05-07T02:52:53;4.97;;;2.65;;
65162;SDS011;51751;55.714;37.436;2023-05-07T02:55:19;5.40;;;2.83;;
65162;SDS011;51751;55.714;37.436;2023-05-07T02:57:46;7.05;;;2.55;;
65162;SDS011;51751;55.714;37.436;2023-05-07T03:00:13;4.90;;;2.60;;
65162;SDS011;51751;55.714;37.436;2023-05-07T03:02:46;6.88;;;2.42;;
65162;SDS011;51751;55.714;37.436;2023-05-07T03:05:12;4.03;;;2.72;;
65162;SDS011;51751;55.714;37.436;2023-05-07T03:07:38;5.57;;;2.30;;
65162;SDS011;51751;55.714;37.436;2023-05-07T03:10:22;6.80;;;2.45;;
65162;SDS011;51751;55.714;37.436;2023-05-07T03:12:48;4.20;;;2.53;;
65162;SDS011;51751;55.714;37.436;2023-05-07T03:15:16;5.70;;;2.55;;
65162;SDS011;51751;55.714;37.436;2023-05-07T03:17:42;5.45;;;2.38;;
65162;SDS011;51751;55.714;37.436;2023-05-07T03:20:08;3.22;;;2.30;;
65162;SDS011;51751;55.714;37.436;2023-05-07T03:22:35;2.85;;;2.40;;
65162;SDS011;51751;55.714;37.436;2023-05-07T03:25:01;4.85;;;2.55;;
65162;SDS011;51751;55.714;37.436;2023-05-07T03:27:33;5.47;;;2.90;;
65162;SDS011;51751;55.714;37.436;2023-05-07T03:29:59;3.92;;;2.60;;
65162;SDS011;51751;55.714;37.436;2023-05-07T03:32:25;5.05;;;2.90;;
65162;SDS011;51751;55.714;37.436;2023-05-07T03:34:51;6.40;;;2.85;;
65162;SDS011;51751;55.714;37.436;2023-05-07T03:37:17;4.32;;;2.60;;
65162;SDS011;51751;55.714;37.436;2023-05-07T03:39:43;4.60;;;2.55;;
65162;SDS011;51751;55.714;37.436;2023-05-07T03:42:09;4.10;;;2.60;;
65162;SDS011;51751;55.714;37.436;2023-05-07T03:44:35;4.60;;;2.50;;
65162;SDS011;51751;55.714;37.436;2023-05-07T03:47:02;3.08;;;2.47;;
65162;SDS011;51751;55.714;37.436;2023-05-07T03:49:29;4.65;;;2.80;;
65162;SDS011;51751;55.714;37.436;2023-05-07T03:51:55;3.28;;;2.60;;
65162;SDS011;51751;55.714;37.436;2023-05-07T03:54:22;4.55;;;2.40;;
65162;SDS011;51751;55.714;37.436;2023-05-07T03:56:47;3.30;;;2.40;;
65162;SDS011;51751;55.714;37.436;2023-05-07T03:59:14;3.63;;;2.38;;
65162;SDS011;51751;55.714;37.436;2023-05-07T04:01:41;3.92;;;2.40;;
65162;SDS011;51751;55.714;37.436;2023-05-07T04:04:07;4.03;;;2.58;;
65162;SDS011;51751;55.714;37.436;2023-05-07T04:06:34;3.10;;;2.40;;
65162;SDS011;51751;55.714;37.436;2023-05-07T04:09:00;4.75;;;2.33;;
65162;SDS011;51751;55.714;37.436;2023-05-07T04:11:26;3.80;;;2.50;;
65162;SDS011;51751;55.714;37.436;2023-05-07T04:13:52;4.20;;;2.45;;
65162;SDS011;51751;55.714;37.436;2023-05-07T04:16:21;4.28;;;2.60;;
65162;SDS011;51751;55.714;37.436;2023-05-07T04:18:47;3.47;;;2.25;;
65162;SDS011;51751;55.714;37.436;2023-05-07T04:21:16;4.43;;;2.50;;
65162;SDS011;51751;55.714;37.436;2023-05-07T04:23:43;3.65;;;2.30;;
65162;SDS011;51751;55.714;37.436;2023-05-07T04:26:11;3.47;;;2.08;;
65162;SDS011;51751;55.714;37.436;2023-05-07T04:28:42;3.95;;;2.22;;
65162;SDS011;51751;55.714;37.436;2023-05-07T04:31:26;6.30;;;2.47;;
65162;SDS011;51751;55.714;37.436;2023-05-07T04:33:53;4.65;;;2.00;;
65162;SDS011;51751;55.714;37.436;2023-05-07T04:36:19;3.60;;;2.20;;
65162;SDS011;51751;55.714;37.436;2023-05-07T04:38:55;3.35;;;2.35;;
65162;SDS011;51751;55.714;37.436;2023-05-07T04:41:23;4.68;;;2.05;;
65162;SDS011;51751;55.714;37.436;2023-05-07T04:43:49;2.92;;;2.10;;
65162;SDS011;51751;55.714;37.436;2023-05-07T04:46:33;3.40;;;1.98;;
65162;SDS011;51751;55.714;37.436;2023-05-07T04:48:59;2.80;;;1.85;;
65162;SDS011;51751;55.714;37.436;2023-05-07T04:51:25;3.72;;;1.90;;
65162;SDS011;51751;55.714;37.436;2023-05-07T04:54:09;4.32;;;1.70;;
65162;SDS011;51751;55.714;37.436;2023-05-07T04:56:35;5.93;;;1.63;;
65162;SDS011;51751;55.714;37.436;2023-05-07T04:59:02;2.50;;;1.80;;
65162;SDS011;51751;55.714;37.436;2023-05-07T05:01:28;2.95;;;1.90;;
65162;SDS011;51751;55.714;37.436;2023-05-07T05:03:55;3.08;;;1.85;;
65162;SDS011;51751;55.714;37.436;2023-05-07T05:06:20;3.17;;;1.80;;
65162;SDS011;51751;55.714;37.436;2023-05-07T05:08:46;6.65;;;1.80;;
65162;SDS011;51751;55.714;37.436;2023-05-07T05:11:12;1.65;;;1.55;;
65162;SDS011;51751;55.714;37.436;2023-05-07T05:13:38;2.78;;;1.70;;
65162;SDS011;51751;55.714;37.436;2023-05-07T05:16:10;1.60;;;1.50;;
65162;SDS011;51751;55.714;37.436;2023-05-07T05:18:37;1.83;;;1.60;;
65162;SDS011;51751;55.714;37.436;2023-05-07T05:21:03;3.72;;;1.70;;
65162;SDS011;51751;55.714;37.436;2023-05-07T05:23:30;2.42;;;1.50;;
65162;SDS011;51751;55.714;37.436;2023-05-07T05:25:56;1.50;;;1.40;;
65162;SDS011;51751;55.714;37.436;2023-05-07T05:28:28;1.75;;;1.50;;
65162;SDS011;51751;55.714;37.436;2023-05-07T05:30:54;1.58;;;1.48;;
65162;SDS011;51751;55.714;37.436;2023-05-07T05:33:22;1.80;;;1.27;;
65162;SDS011;51751;55.714;37.436;2023-05-07T05:35:49;1.63;;;1.30;;
65162;SDS011;51751;55.714;37.436;2023-05-07T05:38:15;1.40;;;1.20;;
65162;SDS011;51751;55.714;37.436;2023-05-07T05:40:41;2.00;;;1.30;;
65162;SDS011;51751;55.714;37.436;2023-05-07T05:43:07;2.88;;;1.50;;
65162;SDS011;51751;55.714;37.436;2023-05-07T05:45:34;2.35;;;1.48;;
65162;SDS011;51751;55.714;37.436;2023-05-07T05:48:00;3.55;;;1.65;;
65162;SDS011;51751;55.714;37.436;2023-05-07T05:50:26;2.53;;;1.20;;
65162;SDS011;51751;55.714;37.436;2023-05-07T05:52:53;3.17;;;1.33;;
65162;SDS011;51751;55.714;37.436;2023-05-07T05:55:20;1.42;;;1.33;;
65162;SDS011;51751;55.714;37.436;2023-05-07T05:57:46;1.35;;;1.25;;
65162;SDS011;51751;55.714;37.436;2023-05-07T06:00:13;3.28;;;1.75;;
65162;SDS011;51751;55.714;37.436;2023-05-07T06:02:45;4.63;;;1.30;;
65162;SDS011;51751;55.714;37.436;2023-05-07T06:05:14;3.80;;;1.40;;
65162;SDS011;51751;55.714;37.436;2023-05-07T06:07:41;3.17;;;1.40;;
65162;SDS011;51751;55.714;37.436;2023-05-07T06:10:25;3.58;;;1.70;;
65162;SDS011;51751;55.714;37.436;2023-05-07T06:12:53;1.83;;;1.40;;
65162;SDS011;51751;55.714;37.436;2023-05-07T06:15:19;4.22;;;1.50;;
65162;SDS011;51751;55.714;37.436;2023-05-07T06:17:45;2.85;;;1.42;;
65162;SDS011;51751;55.714;37.436;2023-05-07T06:20:11;1.40;;;1.30;;
65162;SDS011;51751;55.714;37.436;2023-05-07T06:22:38;2.25;;;1.58;;
65162;SDS011;51751;55.714;37.436;2023-05-07T06:25:04;3.20;;;1.40;;
65162;SDS011;51751;55.714;37.436;2023-05-07T06:27:31;2.05;;;1.40;;
65162;SDS011;51751;55.714;37.436;2023-05-07T06:29:57;3.58;;;1.42;;
65162;SDS011;51751;55.714;37.436;2023-05-07T06:32:23;2.67;;;1.50;;
65162;SDS011;51751;55.714;37.436;2023-05-07T06:34:50;3.92;;;1.75;;
65162;SDS011;51751;55.714;37.436;2023-05-07T06:37:16;6.13;;;1.42;;
65162;SDS011;51751;55.714;37.436;2023-05-07T06:39:58;1.63;;;1.30;;
65162;SDS011;51751;55.714;37.436;2023-05-07T06:42:24;3.25;;;1.40;;
65162;SDS011;51751;55.714;37.436;2023-05-07T06:44:49;1.73;;;1.38;;
65162;SDS011;51751;55.714;37.436;2023-05-07T06:47:17;1.83;;;1.40;;
65162;SDS011;51751;55.714;37.436;2023-05-07T06:49:45;1.77;;;1.48;;
65162;SDS011;51751;55.714;37.436;2023-05-07T06:52:15;2.75;;;1.30;;
65162;SDS011;51751;55.714;37.436;2023-05-07T06:54:41;3.22;;;1.25;;
65162;SDS011;51751;55.714;37.436;2023-05-07T06:57:08;1.55;;;1.38;;
65162;SDS011;51751;55.714;37.436;2023-05-07T06:59:34;1.58;;;1.10;;
65162;SDS011;51751;55.714;37.436;2023-05-07T07:02:00;2.08;;;1.40;;
65162;SDS011;51751;55.714;37.436;2023-05-07T07:04:26;2.13;;;1.40;;
65162;SDS011;51751;55.714;37.436;2023-05-07T07:07:00;1.90;;;1.30;;
65162;SDS011;51751;55.714;37.436;2023-05-07T07:09:27;1.88;;;1.33;;
65162;SDS011;51751;55.714;37.436;2023-05-07T07:11:54;1.90;;;1.10;;
65162;SDS011;51751;55.714;37.436;2023-05-07T07:14:20;2.13;;;1.30;;
65162;SDS011;51751;55.714;37.436;2023-05-07T07:16:49;2.63;;;1.63;;
65162;SDS011;51751;55.714;37.436;2023-05-07T07:19:17;1.50;;;1.40;;
65162;SDS011;51751;55.714;37.436;2023-05-07T07:21:44;4.10;;;1.58;;
65162;SDS011;51751;55.714;37.436;2023-05-07T07:24:12;5.07;;;1.45;;
65162;SDS011;51751;55.714;37.436;2023-05-07T07:26:39;4.43;;;1.40;;
65162;SDS011;51751;55.714;37.436;2023-05-07T07:29:05;5.05;;;1.40;;
65162;SDS011;51751;55.714;37.436;2023-05-07T07:31:32;2.88;;;1.55;;
65162;SDS011;51751;55.714;37.436;2023-05-07T07:33:58;3.63;;;1.33;;
65162;SDS011;51751;55.714;37.436;2023-05-07T07:36:24;2.25;;;1.30;;
65162;SDS011;51751;55.714;37.436;2023-05-07T07:39:10;3.20;;;1.50;;
65162;SDS011;51751;55.714;37.436;2023-05-07T07:41:36;1.63;;;1.20;;
65162;SDS011;51751;55.714;37.436;2023-05-07T07:44:03;2.97;;;1.40;;
65162;SDS011;51751;55.714;37.436;2023-05-07T07:46:50;2.63;;;1.40;;
65162;SDS011;51751;55.714;37.436;2023-05-07T07:49:17;2.03;;;1.40;;
65162;SDS011;51751;55.714;37.436;2023-05-07T07:51:43;4.15;;;1.65;;
65162;SDS011;51751;55.714;37.436;2023-05-07T07:54:28;1.45;;;1.30;;
65162;SDS011;51751;55.714;37.436;2023-05-07T07:56:55;1.40;;;1.30;;
65162;SDS011;51751;55.714;37.436;2023-05-07T07:59:21;2.03;;;1.38;;
65162;SDS011;51751;55.714;37.436;2023-05-07T08:01:56;1.98;;;1.30;;
65162;SDS011;51751;55.714;37.436;2023-05-07T08:04:25;2.60;;;1.10;;
65162;SDS011;51751;55.714;37.436;2023-05-07T08:06:52;2.40;;;1.20;;
65162;SDS011;51751;55.714;37.436;2023-05-07T08:09:20;1.27;;;1.17;;
65162;SDS011;51751;55.714;37.436;2023-05-07T08:11:47;2.42;;;1.38;;
65162;SDS011;51751;55.714;37.436;2023-05-07T08:14:14;1.20;;;1.10;;
65162;SDS011;51751;55.714;37.436;2023-05-07T08:16:42;3.35;;;1.25;;
65162;SDS011;51751;55.714;37.436;2023-05-07T08:19:08;4.03;;;1.30;;
65162;SDS011;51751;55.714;37.436;2023-05-07T08:21:34;2.75;;;1.23;;
65162;SDS011;51751;55.714;37.436;2023-05-07T08:24:04;2.03;;;1.10;;
65162;SDS011;51751;55.714;37.436;2023-05-07T08:26:30;1.77;;;1.40;;
65162;SDS011;51751;55.714;37.436;2023-05-07T08:29:14;1.15;;;1.05;;
65162;SDS011;51751;55.714;37.436;2023-05-07T08:31:41;1.10;;;1.10;;
65162;SDS011;51751;55.714;37.436;2023-05-07T08:34:07;3.30;;;1.20;;
65162;SDS011;51751;55.714;37.436;2023-05-07T08:36:36;4.10;;;1.15;;
65162;SDS011;51751;55.714;37.436;2023-05-07T08:43:27;2.83;;;1.13;;
65162;SDS011;51751;55.714;37.436;2023-05-07T08:46:13;1.40;;;1.10;;
65162;SDS011;51751;55.714;37.436;2023-05-07T08:48:43;2.55;;;1.10;;
65162;SDS011;51751;55.714;37.436;2023-05-07T08:51:14;5.57;;;1.13;;
65162;SDS011;51751;55.714;37.436;2023-05-07T08:53:42;2.97;;;1.20;;
65162;SDS011;51751;55.714;37.436;2023-05-07T08:56:12;1.70;;;1.10;;
65162;SDS011;51751;55.714;37.436;2023-05-07T08:58:41;3.38;;;1.20;;
65162;SDS011;51751;55.714;37.436;2023-05-07T09:01:14;2.35;;;1.15;;
65162;SDS011;51751;55.714;37.436;2023-05-07T09:03:42;2.58;;;1.20;;
65162;SDS011;51751;55.714;37.436;2023-05-07T09:06:10;1.75;;;1.02;;
65162;SDS011;51751;55.714;37.436;2023-05-07T09:08:36;1.20;;;1.10;;
65162;SDS011;51751;55.714;37.436;2023-05-07T09:11:04;1.80;;;1.35;;
65162;SDS011;51751;55.714;37.436;2023-05-07T09:13:30;1.27;;;1.13;;
65162;SDS011;51751;55.714;37.436;2023-05-07T09:15:58;2.67;;;1.30;;
65162;SDS011;51751;55.714;37.436;2023-05-07T09:18:27;1.25;;;1.00;;
65162;SDS011;51751;55.714;37.436;2023-05-07T09:20:54;4.05;;;1.08;;
65162;SDS011;51751;55.714;37.436;2023-05-07T09:23:21;2.40;;;0.90;;
65162;SDS011;51751;55.714;37.436;2023-05-07T09:25:46;1.95;;;1.10;;
65162;SDS011;51751;55.714;37.436;2023-05-07T09:28:19;2.78;;;1.15;;
65162;SDS011;51751;55.714;37.436;2023-05-07T09:30:45;4.15;;;1.20;;
65162;SDS011;51751;55.714;37.436;2023-05-07T09:33:14;1.35;;;1.13;;
65162;SDS011;51751;55.714;37.436;2023-05-07T09:35:44;4.32;;;1.30;;
65162;SDS011;51751;55.714;37.436;2023-05-07T09:38:15;4.57;;;1.30;;
65162;SDS011;51751;55.714;37.436;2023-05-07T09:40:44;1.45;;;1.20;;
65162;SDS011;51751;55.714;37.436;2023-05-07T09:43:13;1.30;;;1.20;;
65162;SDS011;51751;55.714;37.436;2023-05-07T09:45:52;1.88;;;1.13;;
65162;SDS011;51751;55.714;37.436;2023-05-07T09:48:22;4.15;;;1.30;;
65162;SDS011;51751;55.714;37.436;2023-05-07T09:50:51;1.23;;;1.05;;
65162;SDS011;51751;55.714;37.436;2023-05-07T09:53:25;1.95;;;1.20;;
65162;SDS011;51751;55.714;37.436;2023-05-07T09:55:52;5.35;;;1.15;;
65162;SDS011;51751;55.714;37.436;2023-05-07T09:58:19;2.08;;;1.05;;
65162;SDS011;51751;55.714;37.436;2023-05-07T10:00:46;1.15;;;1.08;;
65162;SDS011;51751;55.714;37.436;2023-05-07T10:03:14;1.15;;;1.00;;
65162;SDS011;51751;55.714;37.436;2023-05-07T10:05:51;6.47;;;0.90;;
65162;SDS011;51751;55.714;37.436;2023-05-07T10:08:19;1.20;;;1.10;;
65162;SDS011;51751;55.714;37.436;2023-05-07T10:10:47;2.45;;;1.20;;
65162;SDS011;51751;55.714;37.436;2023-05-07T10:13:19;1.20;;;0.90;;
65162;SDS011;51751;55.714;37.436;2023-05-07T10:16:04;2.03;;;1.17;;
65162;SDS011;51751;55.714;37.436;2023-05-07T10:18:35;1.20;;;1.10;;
65162;SDS011;51751;55.714;37.436;2023-05-07T10:21:22;2.85;;;1.20;;
65162;SDS011;51751;55.714;37.436;2023-05-07T10:23:58;1.88;;;1.13;;
65162;SDS011;51751;55.714;37.436;2023-05-07T10:26:29;1.10;;;1.00;;
65162;SDS011;51751;55.714;37.436;2023-05-07T10:28:59;1.75;;;1.10;;
65162;SDS011;51751;55.714;37.436;2023-05-07T10:34:00;6.80;;;1.30;;
65162;SDS011;51751;55.714;37.436;2023-05-07T10:36:27;2.25;;;1.17;;
65162;SDS011;51751;55.714;37.436;2023-05-07T10:38:53;3.42;;;1.00;;
65162;SDS011;51751;55.714;37.436;2023-05-07T10:41:20;8.68;;;1.38;;
65162;SDS011;51751;55.714;37.436;2023-05-07T10:43:48;3.10;;;1.27;;
65162;SDS011;51751;55.714;37.436;2023-05-07T10:46:23;0.90;;;0.90;;
65162;SDS011;51751;55.714;37.436;2023-05-07T10:51:28;1.20;;;1.10;;
65162;SDS011;51751;55.714;37.436;2023-05-07T10:56:49;1.35;;;1.20;;
65162;SDS011;51751;55.714;37.436;2023-05-07T11:01:55;1.48;;;1.27;;
65162;SDS011;51751;55.714;37.436;2023-05-07T11:04:36;1.33;;;1.13;;
65162;SDS011;51751;55.714;37.436;2023-05-07T11:07:30;1.63;;;1.30;;
65162;SDS011;51751;55.714;37.436;2023-05-07T11:10:10;2.30;;;1.10;;
65162;SDS011;51751;55.714;37.436;2023-05-07T11:12:49;2.35;;;1.20;;
65162;SDS011;51751;55.714;37.436;2023-05-07T11:15:34;2.25;;;1.02;;
65162;SDS011;51751;55.714;37.436;2023-05-07T11:18:05;1.27;;;1.05;;
65162;SDS011;51751;55.714;37.436;2023-05-07T11:26:27;2.38;;;1.15;;
65162;SDS011;51751;55.714;37.436;2023-05-07T11:28:54;5.65;;;1.50;;
65162;SDS011;51751;55.714;37.436;2023-05-07T11:31:26;2.53;;;1.05;;
65162;SDS011;51751;55.714;37.436;2023-05-07T11:33:56;2.25;;;1.30;;
65162;SDS011;51751;55.714;37.436;2023-05-07T11:36:23;5.57;;;1.40;;
65162;SDS011;51751;55.714;37.436;2023-05-07T11:39:22;1.77;;;1.30;;
65162;SDS011;51751;55.714;37.436;2023-05-07T11:41:49;1.92;;;1.10;;
65162;SDS011;51751;55.714;37.436;2023-05-07T11:44:15;1.20;;;1.10;;
65162;SDS011;51751;55.714;37.436;2023-05-07T11:47:00;1.58;;;1.00;;
65162;SDS011;51751;55.714;37.436;2023-05-07T11:49:26;1.55;;;1.30;;
65162;SDS011;51751;55.714;37.436;2023-05-07T11:51:52;1.77;;;1.30;;
65162;SDS011;51751;55.714;37.436;2023-05-07T11:54:18;1.70;;;1.23;;
65162;SDS011;51751;55.714;37.436;2023-05-07T11:56:44;3.63;;;1.80;;
65162;SDS011;51751;55.714;37.436;2023-05-07T11:59:10;1.85;;;1.40;;
65162;SDS011;51751;55.714;37.436;2023-05-07T12:01:36;2.35;;;1.30;;
65162;SDS011;51751;55.714;37.436;2023-05-07T12:04:02;3.35;;;1.50;;
65162;SDS011;51751;55.714;37.436;2023-05-07T12:06:29;2.15;;;1.23;;
65162;SDS011;51751;55.714;37.436;2023-05-07T12:11:41;4.43;;;1.35;;
65162;SDS011;51751;55.714;37.436;2023-05-07T12:14:11;2.78;;;1.30;;
65162;SDS011;51751;55.714;37.436;2023-05-07T12:16:38;1.50;;;1.30;;
65162;SDS011;51751;55.714;37.436;2023-05-07T12:19:05;2.22;;;1.38;;
65162;SDS011;51751;55.714;37.436;2023-05-07T12:21:34;4.45;;;1.50;;
65162;SDS011;51751;55.714;37.436;2023-05-07T12:24:01;3.20;;;1.23;;
65162;SDS011;51751;55.714;37.436;2023-05-07T12:26:27;2.17;;;1.30;;
65162;SDS011;51751;55.714;37.436;2023-05-07T12:28:54;2.10;;;1.23;;
65162;SDS011;51751;55.714;37.436;2023-05-07T12:31:20;3.65;;;1.50;;
65162;SDS011;51751;55.714;37.436;2023-05-07T12:33:45;5.95;;;1.42;;
65162;SDS011;51751;55.714;37.436;2023-05-07T12:36:12;1.00;;;1.00;;
65162;SDS011;51751;55.714;37.436;2023-05-07T12:38:38;3.08;;;1.23;;
65162;SDS011;51751;55.714;37.436;2023-05-07T12:41:06;2.38;;;1.20;;
65162;SDS011;51751;55.714;37.436;2023-05-07T12:43:34;1.95;;;1.30;;
65162;SDS011;51751;55.714;37.436;2023-05-07T12:46:01;2.72;;;1.48;;
65162;SDS011;51751;55.714;37.436;2023-05-07T12:48:29;3.22;;;1.30;;
65162;SDS011;51751;55.714;37.436;2023-05-07T12:50:56;1.80;;;1.27;;
65162;SDS011;51751;55.714;37.436;2023-05-07T12:53:23;4.32;;;1.25;;
65162;SDS011;51751;55.714;37.436;2023-05-07T12:55:52;6.35;;;1.30;;
65162;SDS011;51751;55.714;37.436;2023-05-07T12:58:20;5.03;;;1.30;;
65162;SDS011;51751;55.714;37.436;2023-05-07T13:00:53;3.20;;;1.30;;
65162;SDS011;51751;55.714;37.436;2023-05-07T13:03:23;1.40;;;1.30;;
65162;SDS011;51751;55.714;37.436;2023-05-07T13:05:52;4.63;;;1.40;;
65162;SDS011;51751;55.714;37.436;2023-05-07T13:08:31;6.55;;;1.25;;
65162;SDS011;51751;55.714;37.436;2023-05-07T13:11:06;3.47;;;1.52;;
65162;SDS011;51751;55.714;37.436;2023-05-07T13:13:34;2.40;;;1.60;;
65162;SDS011;51751;55.714;37.436;2023-05-07T13:16:01;1.95;;;1.50;;
65162;SDS011;51751;55.714;37.436;2023-05-07T13:18:29;3.13;;;1.40;;
65162;SDS011;51751;55.714;37.436;2023-05-07T13:20:56;1.33;;;1.23;;
65162;SDS011;51751;55.714;37.436;2023-05-07T13:23:22;1.90;;;1.25;;
65162;SDS011;51751;55.714;37.436;2023-05-07T13:25:48;6.22;;;1.40;;
65162;SDS011;51751;55.714;37.436;2023-05-07T13:28:16;1.40;;;1.13;;
65162;SDS011;51751;55.714;37.436;2023-05-07T13:30:42;4.05;;;1.33;;
65162;SDS011;51751;55.714;37.436;2023-05-07T13:33:08;1.40;;;1.25;;
65162;SDS011;51751;55.714;37.436;2023-05-07T13:35:34;2.30;;;1.30;;
65162;SDS011;51751;55.714;37.436;2023-05-07T13:38:00;1.83;;;1.30;;
65162;SDS011;51751;55.714;37.436;2023-05-07T13:40:26;2.45;;;1.17;;
65162;SDS011;51751;55.714;37.436;2023-05-07T13:42:52;5.13;;;1.50;;
65162;SDS011;51751;55.714;37.436;2023-05-07T13:45:18;3.15;;;1.30;;
65162;SDS011;51751;55.714;37.436;2023-05-07T13:47:45;2.58;;;1.30;;
65162;SDS011;51751;55.714;37.436;2023-05-07T13:50:11;4.28;;;1.45;;
65162;SDS011;51751;55.714;37.436;2023-05-07T13:52:42;2.10;;;1.50;;
65162;SDS011;51751;55.714;37.436;2023-05-07T13:55:16;2.08;;;1.40;;
65162;SDS011;51751;55.714;37.436;2023-05-07T13:57:43;3.13;;;1.45;;
65162;SDS011;51751;55.714;37.436;2023-05-07T14:00:09;1.60;;;1.50;;
65162;SDS011;51751;55.714;37.436;2023-05-07T14:02:42;3.53;;;1.50;;
65162;SDS011;51751;55.714;37.436;2023-05-07T14:05:26;3.53;;;1.30;;
65162;SDS011;51751;55.714;37.436;2023-05-07T14:07:54;3.95;;;1.90;;
65162;SDS011;51751;55.714;37.436;2023-05-07T14:10:20;1.48;;;1.35;;
65162;SDS011;51751;55.714;37.436;2023-05-07T14:12:46;2.17;;;1.23;;
65162;SDS011;51751;55.714;37.436;2023-05-07T14:15:14;5.35;;;1.23;;
65162;SDS011;51751;55.714;37.436;2023-05-07T14:17:42;5.05;;;1.35;;
65162;SDS011;51751;55.714;37.436;2023-05-07T14:20:08;3.47;;;1.40;;
65162;SDS011;51751;55.714;37.436;2023-05-07T14:22:36;3.10;;;1.30;;
65162;SDS011;51751;55.714;37.436;2023-05-07T14:25:02;4.75;;;1.40;;
65162;SDS011;51751;55.714;37.436;2023-05-07T14:27:31;2.22;;;1.17;;
65162;SDS011;51751;55.714;37.436;2023-05-07T14:29:56;2.25;;;1.30;;
65162;SDS011;51751;55.714;37.436;2023-05-07T14:32:22;2.47;;;1.40;;
65162;SDS011;51751;55.714;37.436;2023-05-07T14:34:48;1.77;;;1.30;;
65162;SDS011;51751;55.714;37.436;2023-05-07T14:37:15;4.32;;;1.42;;
65162;SDS011;51751;55.714;37.436;2023-05-07T14:39:41;1.20;;;1.10;;
65162;SDS011;51751;55.714;37.436;2023-05-07T14:42:07;2.95;;;1.40;;
65162;SDS011;51751;55.714;37.436;2023-05-07T14:44:35;2.08;;;1.50;;
65162;SDS011;51751;55.714;37.436;2023-05-07T14:47:01;2.55;;;1.30;;
65162;SDS011;51751;55.714;37.436;2023-05-07T14:49:27;3.10;;;1.40;;
65162;SDS011;51751;55.714;37.436;2023-05-07T14:51:53;2.40;;;1.50;;
65162;SDS011;51751;55.714;37.436;2023-05-07T14:54:19;1.90;;;1.20;;
65162;SDS011;51751;55.714;37.436;2023-05-07T14:56:45;6.85;;;1.40;;
65162;SDS011;51751;55.714;37.436;2023-05-07T14:59:12;2.80;;;1.40;;
65162;SDS011;51751;55.714;37.436;2023-05-07T15:01:57;2.67;;;1.35;;
65162;SDS011;51751;55.714;37.436;2023-05-07T15:04:23;1.70;;;1.40;;
65162;SDS011;51751;55.714;37.436;2023-05-07T15:06:50;3.08;;;1.30;;